»·PEaware :: N210AR L52-67L

N210AR :: L52-67L

FLIGHT INFORMATION

Flight Status: Arrived
Operator: Privately registered:
United States
More flights under this callsign
Pilot: Max S. (16657)
Aircraft: CESSNA 172 SKYHAWK
(C172)
More flights by this aircraft type
Origin: L52 Oceano Co
United States
Destination: 67L Mesquite
United States
More flights between these airports :: More routes between these airports
Route: +
File this flight plan on PilotEdge
Remarks: ALPHABET CHALLENGE
Altitude:
(Current/Filed)
7,500ft
Speed:
(Current/Filed)
110kts
Departed: 06-Apr-20 07:59 AM
Arrived: 06-Apr-20 11:13 AM
Distance/Time
Traveled:
335nm/3:14
Distance/Time
To Go:
Arrived

Flight Plot

Page will automatically refresh every two minutes.


Map Options




Map Legend


Flown Route
Filed Route
Departure Airport
Arrival Airport
Navaid (VOR, NDB)
Fix

Horizontal Profiles

Position Reports

Time Latitude Longitude Heading Altitude Ground
Speed
06-Apr-20 07:39 35.103461 -120.624658 211 17ft 0kts
06-Apr-20 07:40 35.103461 -120.624658 211 17ft 0kts
06-Apr-20 07:40 35.103461 -120.624658 211 17ft 0kts
06-Apr-20 07:42 35.103461 -120.624658 211 17ft 0kts
06-Apr-20 07:42 35.103454 -120.624664 210 17ft 0kts
06-Apr-20 07:43 35.103454 -120.624664 210 17ft 0kts
06-Apr-20 07:45 35.103454 -120.624664 210 17ft 0kts
06-Apr-20 07:45 35.103314 -120.625311 227 17ft 7kts
06-Apr-20 07:46 35.101189 -120.622560 122 17ft 23kts
06-Apr-20 07:48 35.099472 -120.619459 42 17ft 0kts
06-Apr-20 07:48 35.099472 -120.619459 42 17ft 0kts
06-Apr-20 07:49 35.099472 -120.619459 42 17ft 0kts
06-Apr-20 07:50 35.099472 -120.619459 42 17ft 0kts
06-Apr-20 07:51 35.099472 -120.619459 42 17ft 0kts
06-Apr-20 07:52 35.099472 -120.619459 42 17ft 0kts
06-Apr-20 07:53 35.099472 -120.619459 42 17ft 0kts
06-Apr-20 07:54 35.099472 -120.619459 42 17ft 0kts
06-Apr-20 07:55 35.099472 -120.619459 42 17ft 0kts
06-Apr-20 07:56 35.099472 -120.619459 42 17ft 0kts
06-Apr-20 07:57 35.099606 -120.619411 63 17ft 0kts
06-Apr-20 07:58 35.102677 -120.624562 301 94ft 60kts
06-Apr-20 07:59 35.112189 -120.644494 301 888ft 76kts
06-Apr-20 08:00 35.129222 -120.640985 100 1645ft 85kts
06-Apr-20 08:01 35.117972 -120.615509 117 2409ft 85kts
06-Apr-20 08:02 35.107161 -120.589555 88 3100ft 87kts
06-Apr-20 08:03 35.117595 -120.563356 70 3743ft 88kts
06-Apr-20 08:04 35.126279 -120.535606 65 4361ft 89kts
06-Apr-20 08:05 35.128060 -120.504523 95 4669ft 113kts
06-Apr-20 08:06 35.133012 -120.473039 80 5202ft 98kts
06-Apr-20 08:07 35.153786 -120.442919 68 5277ft 127kts
06-Apr-20 08:08 35.167497 -120.402796 78 5276ft 127kts
06-Apr-20 08:09 35.179231 -120.363018 79 5277ft 122kts
06-Apr-20 08:10 35.190736 -120.323764 80 5280ft 122kts
06-Apr-20 08:11 35.202276 -120.284356 80 5282ft 123kts
06-Apr-20 08:12 35.213822 -120.244878 80 5284ft 123kts
06-Apr-20 08:13 35.225417 -120.205210 79 5284ft 123kts
06-Apr-20 08:14 35.236934 -120.165800 80 5373ft 117kts
06-Apr-20 08:15 35.248319 -120.126585 80 5360ft 123kts
06-Apr-20 08:16 35.259845 -120.086972 80 5360ft 124kts
06-Apr-20 08:17 35.271666 -120.047256 79 5361ft 124kts
06-Apr-20 08:18 35.283533 -120.007531 79 5362ft 124kts
06-Apr-20 08:19 35.295095 -119.967834 80 5362ft 122kts
06-Apr-20 08:20 35.306130 -119.929637 80 5360ft 116kts
06-Apr-20 08:21 35.316658 -119.893056 79 5359ft 111kts
06-Apr-20 08:22 35.326683 -119.858145 78 5357ft 106kts
06-Apr-20 08:23 35.336335 -119.824476 77 5356ft 102kts
06-Apr-20 08:24 35.347417 -119.786450 62 5358ft 133kts
06-Apr-20 08:25 35.359600 -119.743561 63 5512ft 127kts
06-Apr-20 08:26 35.371028 -119.704428 66 6004ft 120kts
06-Apr-20 08:27 35.368319 -119.663565 95 6496ft 119kts
06-Apr-20 08:28 35.364211 -119.623600 97 6999ft 117kts
06-Apr-20 08:29 35.360246 -119.584371 98 7500ft 115kts
06-Apr-20 08:30 35.356074 -119.541643 93 7521ft 152kts
06-Apr-20 08:31 35.361098 -119.489976 75 7362ft 148kts
06-Apr-20 08:32 35.370720 -119.441600 72 7364ft 146kts
06-Apr-20 08:33 35.381145 -119.393131 71 7364ft 146kts
06-Apr-20 08:34 35.391516 -119.345449 72 7361ft 146kts
06-Apr-20 08:35 35.401906 -119.297667 72 7358ft 145kts
06-Apr-20 08:36 35.412243 -119.250050 72 7359ft 145kts
06-Apr-20 08:37 35.422121 -119.204460 72 7359ft 145kts
06-Apr-20 08:38 35.431344 -119.161829 72 7359ft 145kts
06-Apr-20 08:39 35.440097 -119.121260 72 7360ft 145kts
06-Apr-20 08:40 35.449012 -119.079897 72 7360ft 145kts
06-Apr-20 08:41 35.458371 -119.036382 72 7360ft 145kts
06-Apr-20 08:42 35.468258 -118.990310 72 7360ft 144kts
06-Apr-20 08:43 35.478859 -118.940801 72 7361ft 143kts
06-Apr-20 08:44 35.489839 -118.889430 72 7361ft 141kts
06-Apr-20 08:45 35.499753 -118.842936 72 7361ft 140kts
06-Apr-20 08:46 35.509523 -118.797008 72 7361ft 138kts
06-Apr-20 08:47 35.519221 -118.751295 72 7360ft 137kts
06-Apr-20 08:48 35.528825 -118.705967 72 7358ft 136kts
06-Apr-20 08:49 35.538272 -118.661291 71 7357ft 135kts
06-Apr-20 08:50 35.547646 -118.616877 71 7356ft 134kts
06-Apr-20 08:51 35.556929 -118.572797 71 7355ft 133kts
06-Apr-20 08:52 35.566165 -118.528856 71 7355ft 132kts
06-Apr-20 08:53 35.575272 -118.485440 71 7355ft 132kts
06-Apr-20 08:54 35.584452 -118.441577 71 7355ft 132kts
06-Apr-20 08:55 35.595861 -118.398812 66 7354ft 131kts
06-Apr-20 08:56 35.607551 -118.356580 66 7354ft 130kts
06-Apr-20 08:57 35.613601 -118.313948 100 7350ft 132kts
06-Apr-20 08:58 35.602570 -118.270606 113 7349ft 133kts
06-Apr-20 08:59 35.589876 -118.228122 114 7347ft 132kts
06-Apr-20 09:00 35.578405 -118.185547 114 7346ft 129kts
06-Apr-20 09:01 35.568142 -118.143740 114 7345ft 126kts
06-Apr-20 09:02 35.558370 -118.101742 114 7343ft 126kts
06-Apr-20 09:03 35.549158 -118.062009 119 7342ft 116kts
06-Apr-20 09:04 35.535427 -118.026849 125 7342ft 114kts
06-Apr-20 09:05 35.521400 -117.992068 125 7351ft 112kts
06-Apr-20 09:06 35.507391 -117.958110 131 7352ft 110kts
06-Apr-20 09:07 35.490931 -117.926310 132 7352ft 110kts
06-Apr-20 09:08 35.474405 -117.894681 132 7352ft 110kts
06-Apr-20 09:09 35.457819 -117.863144 132 7352ft 110kts
06-Apr-20 09:10 35.441139 -117.831643 132 7351ft 109kts
06-Apr-20 09:11 35.425308 -117.799541 124 7351ft 112kts
06-Apr-20 09:12 35.418998 -117.760585 101 7351ft 121kts
06-Apr-20 09:13 35.419411 -117.718971 96 7351ft 123kts
06-Apr-20 09:14 35.421277 -117.677042 96 7351ft 123kts
06-Apr-20 09:15 35.436611 -117.637922 57 7351ft 135kts
06-Apr-20 09:16 35.460554 -117.602068 57 7351ft 135kts
06-Apr-20 09:17 35.484207 -117.566547 57 7479ft 127kts
06-Apr-20 09:18 35.507628 -117.531201 57 7464ft 136kts
06-Apr-20 09:19 35.531366 -117.494981 57 7464ft 136kts
06-Apr-20 09:20 35.562068 -117.467378 20 7464ft 142kts
06-Apr-20 09:21 35.600897 -117.458383 8 7465ft 142kts
06-Apr-20 09:22 35.636664 -117.442300 61 7462ft 135kts
06-Apr-20 09:23 35.655458 -117.402841 67 7465ft 133kts
06-Apr-20 09:24 35.677517 -117.366286 43 7465ft 139kts
06-Apr-20 09:25 35.712905 -117.348363 23 7465ft 142kts
06-Apr-20 09:26 35.751241 -117.336413 12 7465ft 142kts
06-Apr-20 09:27 35.790107 -117.326595 12 7465ft 142kts
06-Apr-20 09:28 35.827052 -117.312434 32 7465ft 141kts
06-Apr-20 09:29 35.861364 -117.288991 32 7465ft 141kts
06-Apr-20 09:30 35.885573 -117.254522 71 7466ft 132kts
06-Apr-20 09:31 35.899942 -117.213652 110 7462ft 118kts
06-Apr-20 09:32 35.877183 -117.193342 158 7466ft 102kts
06-Apr-20 09:33 35.856723 -117.167583 126 7466ft 112kts
06-Apr-20 09:34 35.847948 -117.129448 109 7466ft 119kts
06-Apr-20 09:35 35.844184 -117.088613 105 7466ft 120kts
06-Apr-20 09:36 35.841823 -117.047221 104 7466ft 120kts
06-Apr-20 09:37 35.839828 -117.006088 103 7466ft 120kts
06-Apr-20 09:39 35.837881 -116.964958 104 7466ft 120kts
06-Apr-20 09:40 35.835844 -116.923932 104 7466ft 119kts
06-Apr-20 09:41 35.833715 -116.883211 104 7466ft 119kts
06-Apr-20 09:42 35.831493 -116.842707 104 7468ft 117kts
06-Apr-20 09:43 35.829201 -116.802750 104 7471ft 116kts
06-Apr-20 09:44 35.826828 -116.763209 103 7474ft 114kts
06-Apr-20 09:45 35.824384 -116.724133 103 7476ft 113kts
06-Apr-20 09:46 35.821869 -116.685476 103 7479ft 112kts
06-Apr-20 09:47 35.819278 -116.647126 102 7482ft 111kts
06-Apr-20 09:48 35.816608 -116.608994 102 7479ft 111kts
06-Apr-20 09:49 35.813841 -116.570771 103 7475ft 111kts
06-Apr-20 09:50 35.810970 -116.532614 102 7488ft 110kts
06-Apr-20 09:51 35.807977 -116.494060 103 7439ft 112kts
06-Apr-20 09:52 35.804916 -116.455809 103 7435ft 112kts
06-Apr-20 09:53 35.801762 -116.417592 103 7432ft 112kts
06-Apr-20 09:54 35.798502 -116.379277 103 7429ft 112kts
06-Apr-20 09:55 35.795173 -116.341256 104 7429ft 112kts
06-Apr-20 09:56 35.791727 -116.303009 104 7428ft 112kts
06-Apr-20 09:57 35.788172 -116.264620 104 7427ft 112kts
06-Apr-20 09:58 35.786327 -116.245052 104 7426ft 112kts
06-Apr-20 09:58 35.783681 -116.217371 104 7424ft 112kts
06-Apr-20 10:00 35.779301 -116.172639 104 7422ft 112kts
06-Apr-20 10:00 35.776088 -116.140668 104 7422ft 112kts
06-Apr-20 10:01 35.772147 -116.102292 105 7425ft 113kts
06-Apr-20 10:03 35.767370 -116.056987 105 7429ft 114kts
06-Apr-20 10:03 35.763845 -116.024387 106 7433ft 115kts
06-Apr-20 10:04 35.759478 -115.984816 106 7437ft 117kts
06-Apr-20 10:06 35.754250 -115.938207 108 7468ft 114kts
06-Apr-20 10:06 35.750588 -115.906227 109 7458ft 109kts
06-Apr-20 10:07 35.746079 -115.868138 110 7470ft 112kts
06-Apr-20 10:08 35.741370 -115.829306 110 7481ft 116kts
06-Apr-20 10:09 35.736493 -115.789817 110 7485ft 117kts
06-Apr-20 10:10 35.731483 -115.750086 110 7489ft 118kts
06-Apr-20 10:11 35.726345 -115.710145 110 7492ft 118kts
06-Apr-20 10:12 35.721090 -115.669976 110 7495ft 119kts
06-Apr-20 10:13 35.715734 -115.629771 111 7494ft 119kts
06-Apr-20 10:14 35.710253 -115.589453 111 7495ft 119kts
06-Apr-20 10:15 35.704417 -115.547977 110 7274ft 126kts
06-Apr-20 10:16 35.698325 -115.505306 110 6985ft 126kts
06-Apr-20 10:17 35.689602 -115.466830 111 6987ft 117kts
06-Apr-20 10:18 35.705595 -115.428464 52 6987ft 139kts
06-Apr-20 10:19 35.732537 -115.394173 57 6987ft 137kts
06-Apr-20 10:20 35.752567 -115.355110 69 6987ft 134kts
06-Apr-20 10:21 35.765393 -115.314848 57 6988ft 137kts
06-Apr-20 10:22 35.799239 -115.291518 18 6987ft 144kts
06-Apr-20 10:23 35.834871 -115.300283 304 6988ft 133kts
06-Apr-20 10:24 35.861160 -115.332450 324 6986ft 140kts
06-Apr-20 10:25 35.898133 -115.350425 342 6984ft 144kts
06-Apr-20 10:26 35.936635 -115.363460 348 6981ft 143kts
06-Apr-20 10:27 35.974639 -115.375353 351 6978ft 139kts
06-Apr-20 10:28 36.011668 -115.386757 352 6973ft 135kts
06-Apr-20 10:29 36.048365 -115.398470 344 6970ft 139kts
06-Apr-20 10:30 36.087166 -115.406828 355 6770ft 150kts
06-Apr-20 10:31 36.128397 -115.410612 12 6283ft 153kts
06-Apr-20 10:32 36.151674 -115.382541 62 5857ft 144kts
06-Apr-20 10:33 36.174264 -115.358298 23 5697ft 138kts
06-Apr-20 10:34 36.201036 -115.345861 22 6046ft 125kts
06-Apr-20 10:35 36.229801 -115.332256 23 5765ft 150kts
06-Apr-20 10:36 36.261766 -115.316877 23 5349ft 149kts
06-Apr-20 10:37 36.288508 -115.295973 58 4939ft 141kts
06-Apr-20 10:38 36.305946 -115.264792 62 4544ft 139kts
06-Apr-20 10:39 36.325783 -115.228028 62 4486ft 125kts
06-Apr-20 10:40 36.346390 -115.190005 62 4487ft 124kts
06-Apr-20 10:41 36.361871 -115.148590 84 5012ft 111kts
06-Apr-20 10:42 36.371132 -115.106091 84 5488ft 117kts
06-Apr-20 10:43 36.380894 -115.057500 84 5478ft 123kts
06-Apr-20 10:44 36.392841 -115.006783 73 5477ft 117kts
06-Apr-20 10:45 36.414010 -114.969525 62 5478ft 117kts
06-Apr-20 10:46 36.435553 -114.938740 51 5478ft 120kts
06-Apr-20 10:47 36.460202 -114.910711 51 5478ft 120kts
06-Apr-20 10:48 36.484744 -114.882688 51 5478ft 120kts
06-Apr-20 10:49 36.509330 -114.854440 51 5478ft 120kts
06-Apr-20 10:50 36.531466 -114.824489 66 5478ft 115kts
06-Apr-20 10:51 36.547362 -114.790138 70 5478ft 113kts
06-Apr-20 10:52 36.561847 -114.755223 72 5478ft 113kts
06-Apr-20 10:53 36.575932 -114.720208 72 5478ft 113kts
06-Apr-20 10:54 36.589931 -114.685079 72 5478ft 113kts
06-Apr-20 10:55 36.603781 -114.650223 72 5478ft 113kts
06-Apr-20 10:56 36.617693 -114.615107 72 5478ft 113kts
06-Apr-20 10:57 36.627287 -114.578631 76 5477ft 112kts
06-Apr-20 10:58 36.640440 -114.543236 72 5477ft 113kts
06-Apr-20 10:59 36.654360 -114.508004 72 5477ft 113kts
06-Apr-20 11:00 36.668797 -114.471414 71 5113ft 120kts
06-Apr-20 11:01 36.683789 -114.433492 70 4611ft 124kts
06-Apr-20 11:02 36.699275 -114.394273 69 4110ft 128kts
06-Apr-20 11:03 36.715273 -114.353767 68 3612ft 132kts
06-Apr-20 11:04 36.731503 -114.312519 67 3121ft 135kts
06-Apr-20 11:05 36.747359 -114.272303 66 3017ft 123kts
06-Apr-20 11:06 36.762407 -114.234023 65 3021ft 123kts
06-Apr-20 11:07 36.777479 -114.195650 65 3021ft 123kts
06-Apr-20 11:08 36.792559 -114.157175 65 3021ft 124kts
06-Apr-20 11:09 36.807370 -114.119208 67 2970ft 105kts
06-Apr-20 11:10 36.814089 -114.092253 84 2691ft 77kts
06-Apr-20 11:11 36.819837 -114.066122 37 2452ft 85kts
06-Apr-20 11:12 36.836894 -114.053376 26 1979ft 36kts
06-Apr-20 11:13 36.839267 -114.052522 206 1979ft 9kts
06-Apr-20 11:14 36.833745 -114.056372 208 1979ft 11kts
06-Apr-20 11:15 36.832799 -114.058088 5 1979ft 7kts
06-Apr-20 11:16 36.833523 -114.057613 112 1979ft 0kts
06-Apr-20 11:17 36.833523 -114.057613 112 1979ft 0kts
06-Apr-20 11:18 36.833523 -114.057613 112 1979ft 0kts

Navigation Log

Ident Type
Flight plan parsing failed, navigation log unavailable